createdAt,value
2018-02-13T00:02:24.603Z,10.47
2018-02-13T00:04:52.537Z,9.10
2018-02-13T00:07:20.388Z,8.77
2018-02-13T00:09:48.286Z,8.60
2018-02-13T00:12:16.184Z,8.60
2018-02-13T00:14:44.139Z,9.00
2018-02-13T00:17:11.992Z,8.00
2018-02-13T00:19:39.916Z,8.17
2018-02-13T00:22:07.779Z,8.87
2018-02-13T00:24:35.665Z,8.83
2018-02-13T00:27:03.559Z,9.77
2018-02-13T00:29:31.543Z,10.07
2018-02-13T00:31:59.426Z,9.27
2018-02-13T00:34:27.331Z,8.90
2018-02-13T00:36:55.193Z,8.30
2018-02-13T00:39:23.102Z,9.17
2018-02-13T00:41:51.026Z,8.40
2018-02-13T00:44:19.012Z,9.20
2018-02-13T00:46:46.872Z,7.80
2018-02-13T00:49:14.751Z,9.40
2018-02-13T00:51:42.615Z,9.57
2018-02-13T00:54:10.451Z,8.73
2018-02-13T00:56:38.339Z,9.43
2018-02-13T00:59:06.171Z,10.07
2018-02-13T01:01:34.036Z,8.23
2018-02-13T01:04:01.941Z,9.13
2018-02-13T01:06:29.795Z,7.10
2018-02-13T01:08:57.647Z,9.43
2018-02-13T01:11:25.527Z,7.43
2018-02-13T01:13:53.399Z,8.30
2018-02-13T01:16:21.257Z,8.27
2018-02-13T01:18:49.153Z,8.90
2018-02-13T01:21:17.029Z,10.90
2018-02-13T01:23:44.888Z,8.90
2018-02-13T01:26:12.761Z,8.27
2018-02-13T01:28:40.610Z,8.53
2018-02-13T01:31:08.500Z,8.37
2018-02-13T01:33:36.366Z,8.40
2018-02-13T01:36:04.239Z,7.80
2018-02-13T01:38:32.092Z,8.77
2018-02-13T01:40:59.961Z,10.30
2018-02-13T01:43:27.819Z,8.80
2018-02-13T01:45:55.718Z,8.80
2018-02-13T01:48:23.603Z,10.27
2018-02-13T01:50:51.471Z,8.80
2018-02-13T01:53:19.330Z,9.10
2018-02-13T01:55:47.211Z,9.27
2018-02-13T01:58:15.063Z,8.80
2018-02-13T02:00:42.939Z,9.80
2018-02-13T02:03:10.868Z,8.90
2018-02-13T02:05:38.730Z,8.80
2018-02-13T02:08:06.570Z,8.93
2018-02-13T02:10:34.448Z,8.13
2018-02-13T02:13:02.299Z,8.60
2018-02-13T02:15:30.156Z,7.93
2018-02-13T02:17:58.057Z,9.70
2018-02-13T02:20:25.915Z,9.43
2018-02-13T02:22:53.764Z,9.77
2018-02-13T02:25:21.690Z,9.10
2018-02-13T02:27:49.543Z,9.20
2018-02-13T02:30:17.409Z,9.60
2018-02-13T02:32:45.299Z,9.10
2018-02-13T02:35:13.162Z,9.20
2018-02-13T02:37:41.021Z,10.10
2018-02-13T02:40:08.927Z,10.10
2018-02-13T02:42:42.812Z,9.27
2018-02-13T02:45:10.708Z,9.13
2018-02-13T02:47:38.620Z,9.33
2018-02-13T02:50:06.464Z,9.07
2018-02-13T02:52:34.327Z,9.60
2018-02-13T02:55:02.206Z,9.63
2018-02-13T02:57:30.058Z,11.40
2018-02-13T02:59:57.972Z,9.73
2018-02-13T03:02:25.872Z,10.43
2018-02-13T03:04:53.731Z,9.77
2018-02-13T03:07:21.636Z,10.50
2018-02-13T03:09:49.532Z,9.77
2018-02-13T03:12:17.393Z,10.37
2018-02-13T03:14:45.351Z,10.00
2018-02-13T03:17:13.200Z,10.23
2018-02-13T03:19:41.071Z,10.07
2018-02-13T03:22:08.963Z,10.17
2018-02-13T03:24:36.828Z,9.90
2018-02-13T03:27:04.682Z,10.80
2018-02-13T03:29:32.579Z,12.57
2018-02-13T03:32:00.475Z,11.70
2018-02-13T03:34:28.341Z,11.53
2018-02-13T03:36:56.235Z,11.40
2018-02-13T03:39:24.100Z,11.47
2018-02-13T03:41:51.943Z,11.30
2018-02-13T03:44:19.820Z,11.87
2018-02-13T03:46:47.675Z,10.77
2018-02-13T03:49:15.571Z,10.93
2018-02-13T03:51:43.455Z,12.10
2018-02-13T03:54:11.310Z,10.67
2018-02-13T03:56:39.163Z,11.03
2018-02-13T03:59:07.046Z,10.00
2018-02-13T04:01:34.938Z,10.40
2018-02-13T04:04:02.775Z,10.93
2018-02-13T04:06:30.750Z,10.77
2018-02-13T04:08:58.596Z,11.50
2018-02-13T04:11:26.431Z,11.60
2018-02-13T04:13:54.345Z,10.37
2018-02-13T04:16:22.193Z,11.23
2018-02-13T04:18:50.048Z,11.27
2018-02-13T04:21:17.932Z,12.00
2018-02-13T04:23:45.799Z,12.03
2018-02-13T04:26:13.662Z,13.80
2018-02-13T04:28:41.549Z,13.80
2018-02-13T04:31:09.416Z,13.73
2018-02-13T04:33:37.276Z,14.00
2018-02-13T04:36:05.152Z,13.07
2018-02-13T04:38:33.000Z,13.77
2018-02-13T04:41:00.868Z,13.60
2018-02-13T04:43:28.752Z,14.10
2018-02-13T04:45:56.613Z,14.07
2018-02-13T04:48:24.467Z,13.63
2018-02-13T04:50:52.403Z,14.20
2018-02-13T04:53:20.259Z,14.90
2018-02-13T04:55:48.125Z,16.00
2018-02-13T04:58:16.039Z,15.07
2018-02-13T05:00:43.904Z,15.00
2018-02-13T05:03:11.754Z,16.17
2018-02-13T05:05:39.631Z,15.10
2018-02-13T05:08:07.495Z,15.17
2018-02-13T05:10:35.359Z,15.60
2018-02-13T05:13:03.236Z,16.93
2018-02-13T05:15:31.076Z,16.73
2018-02-13T05:17:58.912Z,15.93
2018-02-13T05:20:26.807Z,16.87
2018-02-13T05:22:54.663Z,15.90
2018-02-13T05:25:22.537Z,17.53
2018-02-13T05:27:50.435Z,16.30
2018-02-13T05:30:18.308Z,16.57
2018-02-13T05:32:46.157Z,17.87
2018-02-13T05:35:14.036Z,16.90
2018-02-13T05:37:41.888Z,16.37
2018-02-13T05:40:09.748Z,16.80
2018-02-13T05:42:37.639Z,16.30
2018-02-13T05:45:05.476Z,17.13
2018-02-13T05:47:33.389Z,15.90
2018-02-13T05:50:01.279Z,17.37
2018-02-13T05:52:29.170Z,17.80
2018-02-13T05:54:57.040Z,18.20
2018-02-13T05:57:24.915Z,18.23
2018-02-13T05:59:52.805Z,18.03
2018-02-13T06:02:20.681Z,17.50
2018-02-13T06:04:48.571Z,19.30
2018-02-13T06:07:16.439Z,18.53
2018-02-13T06:09:44.323Z,17.40
2018-02-13T06:12:12.225Z,18.10
2018-02-13T06:14:40.079Z,19.27
2018-02-13T06:17:07.939Z,18.63
2018-02-13T06:19:35.844Z,18.37
2018-02-13T06:22:03.719Z,18.40
2018-02-13T06:24:31.607Z,18.83
2018-02-13T06:26:59.501Z,19.23
2018-02-13T06:29:27.376Z,18.30
2018-02-13T06:31:55.268Z,19.47
2018-02-13T06:34:23.148Z,19.30
2018-02-13T06:36:51.022Z,18.00
2018-02-13T06:39:18.930Z,19.10
2018-02-13T06:41:46.822Z,19.70
2018-02-13T06:44:14.691Z,19.07
2018-02-13T06:46:42.552Z,18.50
2018-02-13T06:49:10.473Z,19.17
2018-02-13T06:51:38.328Z,21.70
2018-02-13T06:54:06.231Z,19.57
2018-02-13T06:56:34.123Z,21.70
2018-02-13T06:59:02.028Z,19.80
2018-02-13T07:01:29.896Z,21.00
2018-02-13T07:03:57.816Z,21.13
2018-02-13T07:06:25.715Z,21.37
2018-02-13T07:08:53.587Z,18.70
2018-02-13T07:11:21.532Z,20.40
2018-02-13T07:13:49.414Z,21.40
2018-02-13T07:16:17.290Z,19.90
2018-02-13T07:18:45.227Z,19.60
2018-02-13T07:21:13.087Z,20.50
2018-02-13T07:23:40.964Z,20.00
2018-02-13T07:26:08.868Z,21.00
2018-02-13T07:28:36.764Z,20.77
2018-02-13T07:31:04.661Z,21.67
2018-02-13T07:33:32.551Z,20.43
2018-02-13T07:36:00.425Z,20.10
2018-02-13T07:38:28.355Z,21.23
2018-02-13T07:40:56.259Z,22.40
2018-02-13T07:43:24.207Z,20.93
2018-02-13T07:45:52.061Z,21.30
2018-02-13T07:48:20.016Z,21.53
2018-02-13T07:50:47.909Z,20.03
2018-02-13T07:53:15.818Z,21.30
2018-02-13T07:55:43.768Z,20.90
2018-02-13T07:58:11.728Z,20.70
2018-02-13T08:00:39.587Z,23.60
2018-02-13T08:03:09.195Z,19.77
2018-02-13T08:05:37.076Z,21.70
2018-02-13T08:08:04.931Z,21.73
2018-02-13T08:10:32.937Z,20.60
2018-02-13T08:13:00.809Z,21.10
2018-02-13T08:15:28.672Z,20.77
2018-02-13T08:17:56.579Z,20.27
2018-02-13T08:20:24.442Z,21.90
2018-02-13T08:22:52.312Z,20.30
2018-02-13T08:25:20.254Z,20.40
2018-02-13T08:27:48.121Z,20.40
2018-02-13T08:30:16.000Z,19.33
2018-02-13T08:32:43.895Z,19.73
2018-02-13T08:35:11.798Z,21.53
2018-02-13T08:37:39.690Z,20.60
2018-02-13T08:40:07.616Z,19.87
2018-02-13T08:42:35.468Z,20.43
2018-02-13T08:45:03.394Z,20.73
2018-02-13T08:47:31.266Z,20.80
2018-02-13T08:49:59.178Z,20.70
2018-02-13T08:52:27.051Z,19.67
2018-02-13T08:54:54.953Z,21.30
2018-02-13T08:57:22.860Z,21.73
2018-02-13T08:59:50.728Z,20.50
2018-02-13T09:02:18.658Z,20.17
2018-02-13T09:04:46.516Z,19.30
2018-02-13T09:07:14.380Z,20.30
2018-02-13T09:09:42.306Z,18.10
2018-02-13T09:12:10.161Z,19.20
2018-02-13T09:14:38.195Z,20.70
2018-02-13T09:17:06.128Z,23.83
2018-02-13T09:19:33.995Z,21.80
2018-02-13T09:22:01.864Z,19.60
2018-02-13T09:24:29.807Z,19.70
2018-02-13T09:26:57.672Z,20.43
2018-02-13T09:29:25.552Z,19.73
2018-02-13T09:31:53.436Z,24.33
2018-02-13T09:34:21.280Z,20.47
2018-02-13T09:36:49.139Z,19.07
2018-02-13T09:39:17.053Z,24.20
2018-02-13T09:41:44.909Z,29.73
2018-02-13T09:44:12.772Z,23.20
2018-02-13T09:46:40.661Z,21.00
2018-02-13T09:49:08.528Z,24.90
2018-02-13T09:51:36.407Z,25.20
2018-02-13T09:54:04.308Z,19.60
2018-02-13T09:56:32.175Z,24.80
2018-02-13T09:59:00.485Z,21.80
2018-02-13T10:01:28.381Z,25.10
2018-02-13T10:03:56.248Z,20.17
2018-02-13T10:06:24.127Z,25.90
2018-02-13T10:08:52.013Z,21.93
2018-02-13T10:11:19.868Z,21.30
2018-02-13T10:13:47.752Z,21.77
2018-02-13T10:16:15.640Z,22.47
2018-02-13T10:18:43.520Z,20.60
2018-02-13T10:21:11.407Z,23.37
2018-02-13T10:23:39.317Z,23.00
2018-02-13T10:26:07.191Z,20.50
2018-02-13T10:28:35.054Z,23.50
2018-02-13T10:31:02.999Z,22.20
2018-02-13T10:33:30.864Z,20.80
2018-02-13T10:35:58.728Z,23.90
2018-02-13T10:38:26.650Z,18.13
2018-02-13T10:40:54.521Z,20.67
2018-02-13T10:43:22.398Z,19.07
2018-02-13T10:45:50.294Z,19.00
2018-02-13T10:48:18.141Z,20.80
2018-02-13T10:50:46.011Z,23.53
2018-02-13T10:53:13.944Z,20.47
2018-02-13T10:55:41.829Z,17.57
2018-02-13T10:58:09.693Z,18.17
2018-02-13T11:00:43.711Z,23.40
2018-02-13T11:03:11.584Z,17.53
2018-02-13T11:05:39.443Z,17.83
2018-02-13T11:08:07.360Z,16.33
2018-02-13T11:10:35.215Z,14.77
2018-02-13T11:13:03.062Z,16.20
2018-02-13T11:15:30.959Z,17.73
2018-02-13T11:17:58.817Z,16.47
2018-02-13T11:20:26.697Z,14.57
2018-02-13T11:22:54.611Z,13.63
2018-02-13T11:25:22.456Z,14.23
2018-02-13T11:27:50.329Z,12.93
2018-02-13T11:30:18.212Z,15.50
2018-02-13T11:32:46.110Z,14.60
2018-02-13T11:35:13.977Z,14.63
2018-02-13T11:37:41.868Z,17.00
2018-02-13T11:40:09.733Z,14.17
2018-02-13T11:42:37.580Z,12.87
2018-02-13T11:45:05.480Z,12.47
2018-02-13T11:47:33.368Z,13.20
2018-02-13T11:50:01.236Z,13.47
2018-02-13T11:52:29.169Z,12.13
2018-02-13T11:54:57.035Z,13.40
2018-02-13T11:57:24.920Z,15.30
2018-02-13T11:59:52.995Z,12.70
2018-02-13T12:02:20.953Z,13.30
2018-02-13T12:04:48.803Z,13.13
2018-02-13T12:07:16.684Z,12.97
2018-02-13T12:09:45.265Z,17.00
2018-02-13T12:12:13.135Z,13.70
2018-02-13T12:14:41.060Z,14.37
2018-02-13T12:17:09.012Z,16.70
2018-02-13T12:19:36.913Z,15.60
2018-02-13T12:22:04.800Z,14.93
2018-02-13T12:24:32.776Z,29.80
2018-02-13T12:27:00.647Z,13.20
2018-02-13T12:29:28.534Z,14.60
2018-02-13T12:31:56.439Z,13.93
2018-02-13T12:34:25.100Z,13.40
2018-02-13T12:36:52.977Z,15.53
2018-02-13T12:39:20.837Z,19.13
2018-02-13T12:41:48.753Z,15.87
2018-02-13T12:44:16.691Z,17.20
2018-02-13T12:46:44.566Z,15.13
2018-02-13T12:49:12.952Z,15.00
2018-02-13T12:51:40.845Z,13.43
2018-02-13T12:54:09.829Z,14.20
2018-02-13T12:56:37.692Z,13.23
2018-02-13T12:59:05.608Z,13.93
2018-02-13T13:01:33.480Z,18.40
2018-02-13T13:04:02.302Z,13.70
2018-02-13T13:06:30.206Z,18.03
2018-02-13T13:08:58.096Z,16.43
2018-02-13T13:11:25.991Z,15.23
2018-02-13T13:13:53.888Z,14.40
2018-02-13T13:16:21.799Z,16.00
2018-02-13T13:18:49.668Z,15.10
2018-02-13T13:21:17.564Z,15.10
2018-02-13T13:23:45.432Z,15.20
2018-02-13T13:26:13.380Z,14.97
2018-02-13T13:28:41.226Z,18.30
2018-02-13T13:31:09.109Z,15.60
2018-02-13T13:33:37.047Z,15.30
2018-02-13T13:36:04.959Z,17.20
2018-02-13T13:38:32.807Z,15.30
2018-02-13T13:41:00.704Z,16.30
2018-02-13T13:43:28.800Z,14.27
2018-02-13T13:45:56.733Z,15.00
2018-02-13T13:48:24.717Z,23.00
2018-02-13T13:50:52.599Z,14.47
2018-02-13T13:53:20.507Z,14.67
2018-02-13T13:55:48.381Z,24.40
2018-02-13T13:58:16.371Z,13.30
2018-02-13T14:00:44.231Z,14.00
2018-02-13T14:03:12.099Z,19.63
2018-02-13T14:05:40.048Z,11.90
2018-02-13T14:08:08.021Z,10.87
2018-02-13T14:10:36.005Z,11.30
2018-02-13T14:13:04.015Z,13.20
2018-02-13T14:15:31.931Z,26.13
2018-02-13T14:17:59.867Z,12.37
2018-02-13T14:20:27.808Z,14.70
2018-02-13T14:22:55.672Z,12.50
2018-02-13T14:25:23.540Z,11.73
2018-02-13T14:27:51.456Z,11.53
2018-02-13T14:30:19.319Z,13.53
2018-02-13T14:32:47.187Z,14.23
2018-02-13T14:35:15.075Z,11.93
2018-02-13T14:37:42.932Z,10.30
2018-02-13T14:40:10.814Z,12.63
2018-02-13T14:42:38.700Z,11.30
2018-02-13T14:45:06.546Z,11.57
2018-02-13T14:47:34.395Z,11.37
2018-02-13T14:50:02.338Z,9.80
2018-02-13T14:52:30.202Z,9.57
2018-02-13T14:54:58.096Z,11.47
2018-02-13T14:57:26.059Z,10.70
2018-02-13T14:59:53.936Z,12.10
2018-02-13T15:02:21.801Z,10.83
2018-02-13T15:04:49.692Z,11.37
2018-02-13T15:07:17.547Z,12.33
2018-02-13T15:09:45.433Z,12.30
2018-02-13T15:12:13.336Z,11.93
2018-02-13T15:14:54.052Z,10.83
2018-02-13T15:17:23.939Z,11.90
2018-02-13T15:19:51.810Z,13.47
2018-02-13T15:22:19.677Z,11.43
2018-02-13T15:24:47.642Z,11.47
2018-02-13T15:27:15.491Z,11.57
2018-02-13T15:29:43.361Z,13.50
2018-02-13T15:32:11.424Z,12.93
2018-02-13T15:34:39.303Z,12.67
2018-02-13T15:37:07.147Z,12.43
2018-02-13T15:39:35.044Z,12.67
2018-02-13T15:42:02.909Z,12.27
2018-02-13T15:44:30.799Z,12.23
2018-02-13T15:47:01.776Z,14.77
2018-02-13T15:49:29.625Z,12.43
2018-02-13T15:51:57.576Z,13.80
2018-02-13T15:54:25.489Z,12.23
2018-02-13T15:56:53.348Z,13.63
2018-02-13T15:59:21.230Z,13.90
2018-02-13T16:01:49.116Z,12.50
2018-02-13T16:04:16.966Z,12.53
2018-02-13T16:06:44.807Z,12.87
2018-02-13T16:09:12.724Z,13.50
2018-02-13T16:11:40.592Z,13.03
2018-02-13T16:14:08.533Z,11.67
2018-02-13T16:16:36.421Z,12.43
2018-02-13T16:19:04.310Z,14.47
2018-02-13T16:21:32.177Z,13.57
2018-02-13T16:24:00.060Z,12.67
2018-02-13T16:26:27.927Z,12.53
2018-02-13T16:28:55.785Z,13.53
2018-02-13T16:31:23.676Z,13.10
2018-02-13T16:33:51.532Z,14.50
2018-02-13T16:36:19.404Z,14.70
2018-02-13T16:38:47.324Z,19.50
2018-02-13T16:41:15.248Z,14.57
2018-02-13T16:43:43.150Z,16.60
2018-02-13T16:46:11.056Z,15.90
2018-02-13T16:48:38.904Z,13.23
2018-02-13T16:51:06.776Z,14.27
2018-02-13T16:53:34.708Z,14.33
2018-02-13T16:56:02.632Z,13.70
2018-02-13T16:58:30.531Z,15.23
2018-02-13T17:00:58.483Z,14.70
2018-02-13T17:03:26.360Z,13.80
2018-02-13T17:05:54.241Z,12.93
2018-02-13T17:08:22.155Z,14.87
2018-02-13T17:10:50.032Z,15.40
2018-02-13T17:13:17.899Z,15.40
2018-02-13T17:15:45.804Z,15.03
2018-02-13T17:18:13.664Z,15.63
2018-02-13T17:20:41.515Z,15.07
2018-02-13T17:23:09.416Z,16.23
2018-02-13T17:25:37.276Z,14.33
2018-02-13T17:28:05.146Z,15.40
2018-02-13T17:30:33.046Z,21.17
2018-02-13T17:33:00.915Z,14.47
2018-02-13T17:35:28.794Z,21.37
2018-02-13T17:37:56.678Z,17.20
2018-02-13T17:40:24.668Z,16.37
2018-02-13T17:42:52.608Z,20.10
2018-02-13T17:45:20.558Z,20.77
2018-02-13T17:47:48.511Z,16.13
2018-02-13T17:50:16.372Z,14.70
2018-02-13T17:52:44.392Z,14.83
2018-02-13T17:55:12.260Z,15.60
2018-02-13T17:57:40.136Z,16.30
2018-02-13T18:00:08.063Z,15.80
2018-02-13T18:02:35.936Z,15.23
2018-02-13T18:05:03.801Z,26.73
2018-02-13T18:07:31.702Z,21.50
2018-02-13T18:09:59.580Z,19.13
2018-02-13T18:12:27.446Z,18.40
2018-02-13T18:14:55.329Z,16.50
2018-02-13T18:17:23.233Z,18.20
2018-02-13T18:19:51.118Z,15.93
2018-02-13T18:22:19.065Z,19.03
2018-02-13T18:24:46.987Z,20.30
2018-02-13T18:27:15.405Z,27.97
2018-02-13T18:29:43.394Z,16.97
2018-02-13T18:32:11.292Z,26.00
2018-02-13T18:34:39.160Z,21.00
2018-02-13T18:37:07.023Z,21.53
2018-02-13T18:39:34.963Z,23.37
2018-02-13T18:42:02.837Z,17.60
2018-02-13T18:44:30.768Z,18.77
2018-02-13T18:46:58.761Z,18.20
2018-02-13T18:49:26.689Z,17.83
2018-02-13T18:51:54.759Z,18.37
2018-02-13T18:54:22.665Z,19.70
2018-02-13T18:56:50.602Z,21.03
2018-02-13T18:59:18.486Z,20.23
2018-02-13T19:01:46.380Z,18.83
2018-02-13T19:04:14.347Z,20.37
2018-02-13T19:06:42.274Z,21.60
2018-02-13T19:09:10.167Z,19.87
2018-02-13T19:11:38.139Z,19.57
2018-02-13T19:14:06.044Z,17.60
2018-02-13T19:16:33.908Z,18.73
2018-02-13T19:19:01.804Z,19.70
2018-02-13T19:21:29.712Z,19.13
2018-02-13T19:23:57.571Z,21.03
2018-02-13T19:26:25.506Z,22.10
2018-02-13T19:28:53.462Z,24.00
2018-02-13T19:31:21.342Z,22.17
2018-02-13T19:33:49.211Z,22.40
2018-02-13T19:36:17.995Z,20.50
2018-02-13T19:38:46.028Z,20.43
2018-02-13T19:41:13.920Z,20.20
2018-02-13T19:43:41.925Z,21.23
2018-02-13T19:46:09.766Z,21.57
2018-02-13T19:48:37.685Z,21.70
2018-02-13T19:51:05.535Z,21.03
2018-02-13T19:53:33.752Z,20.30
2018-02-13T19:56:01.612Z,22.87
2018-02-13T19:58:29.477Z,19.33
2018-02-13T20:00:57.352Z,22.50
2018-02-13T20:03:25.213Z,20.83
2018-02-13T20:05:53.084Z,20.30
2018-02-13T20:08:20.941Z,19.57
2018-02-13T20:10:48.808Z,17.27
2018-02-13T20:13:16.695Z,17.57
2018-02-13T20:15:44.559Z,19.03
2018-02-13T20:18:12.689Z,19.37
2018-02-13T20:20:40.641Z,16.37
2018-02-13T20:23:08.500Z,17.43
2018-02-13T20:25:36.412Z,17.90
2018-02-13T20:28:04.280Z,19.37
2018-02-13T20:30:32.556Z,17.50
2018-02-13T20:33:00.424Z,17.30
2018-02-13T20:35:28.321Z,17.27
2018-02-13T20:37:56.232Z,17.30
2018-02-13T20:40:24.105Z,18.30
2018-02-13T20:42:51.961Z,16.90
2018-02-13T20:45:19.953Z,17.10
2018-02-13T20:47:47.977Z,16.00
2018-02-13T20:50:15.858Z,16.00
2018-02-13T20:52:43.744Z,17.60
2018-02-13T20:55:11.637Z,16.57
2018-02-13T20:57:39.503Z,16.90
2018-02-13T21:00:07.381Z,19.10
2018-02-13T21:02:35.258Z,20.50
2018-02-13T21:05:03.151Z,16.80
2018-02-13T21:07:31.055Z,16.77
2018-02-13T21:09:58.950Z,15.43
2018-02-13T21:12:26.817Z,17.30
2018-02-13T21:14:54.703Z,18.40
2018-02-13T21:17:22.583Z,20.30
2018-02-13T21:19:50.439Z,20.50
2018-02-13T21:22:18.337Z,18.53
2018-02-13T21:24:46.252Z,17.93
2018-02-13T21:27:14.098Z,17.77
2018-02-13T21:29:42.009Z,20.03
2018-02-13T21:32:09.901Z,17.33
2018-02-13T21:34:37.857Z,18.40
2018-02-13T21:37:05.801Z,16.17
2018-02-13T21:39:33.717Z,15.97
2018-02-13T21:42:01.582Z,16.97
2018-02-13T21:44:29.450Z,16.57
2018-02-13T21:46:57.366Z,15.00
2018-02-13T21:49:25.245Z,14.33
2018-02-13T21:51:53.128Z,14.60
2018-02-13T21:54:21.048Z,14.37
2018-02-13T21:56:48.940Z,14.30
2018-02-13T21:59:16.944Z,16.23
2018-02-13T22:01:44.834Z,14.93
2018-02-13T22:04:12.717Z,14.90
2018-02-13T22:06:40.644Z,14.70
2018-02-13T22:09:09.258Z,15.77
2018-02-13T22:11:44.076Z,15.23
2018-02-13T22:14:11.947Z,15.30
2018-02-13T22:16:39.847Z,15.20
2018-02-13T22:19:07.728Z,15.17
2018-02-13T22:21:35.640Z,15.37
2018-02-13T22:24:03.529Z,16.33
2018-02-13T22:26:31.435Z,17.87
2018-02-13T22:28:59.353Z,19.40
2018-02-13T22:31:27.281Z,19.07
2018-02-13T22:33:55.262Z,19.03
2018-02-13T22:36:23.152Z,18.63
2018-02-13T22:38:51.047Z,18.40
2018-02-13T22:41:18.895Z,16.40
2018-02-13T22:43:47.637Z,17.97
2018-02-13T22:46:15.503Z,19.20
2018-02-13T22:48:43.386Z,16.77
2018-02-13T22:51:11.270Z,18.47
2018-02-13T22:53:39.136Z,17.77
2018-02-13T22:56:07.028Z,17.30
2018-02-13T22:58:34.968Z,15.47
2018-02-13T23:01:02.857Z,16.33
2018-02-13T23:03:30.868Z,17.67
2018-02-13T23:05:58.832Z,17.07
2018-02-13T23:08:26.874Z,18.07
2018-02-13T23:10:55.585Z,16.40
2018-02-13T23:13:23.485Z,16.40
2018-02-13T23:15:51.393Z,16.83
2018-02-13T23:18:19.320Z,16.13
2018-02-13T23:20:47.205Z,15.97
2018-02-13T23:23:15.143Z,16.07
2018-02-13T23:25:43.044Z,15.47
2018-02-13T23:28:10.920Z,16.17
2018-02-13T23:30:38.833Z,15.97
2018-02-13T23:33:13.798Z,15.27
2018-02-13T23:35:41.693Z,14.97
2018-02-13T23:38:09.588Z,14.17
2018-02-13T23:40:37.481Z,14.87
2018-02-13T23:43:05.395Z,14.07
2018-02-13T23:45:33.358Z,13.13
2018-02-13T23:48:01.280Z,14.40
2018-02-13T23:50:29.236Z,14.33
2018-02-13T23:52:57.146Z,14.20
2018-02-13T23:55:25.086Z,14.23
2018-02-13T23:57:53.001Z,15.63
